createdAt,value
2022-08-26T00:02:07.089Z,100471.25
2022-08-26T00:04:35.002Z,100476.31
2022-08-26T00:07:04.402Z,100487.34
2022-08-26T00:09:37.278Z,100492.53
2022-08-26T00:12:07.705Z,100482.69
2022-08-26T00:14:37.319Z,100489.16
2022-08-26T00:17:05.325Z,100484.19
2022-08-26T00:19:36.546Z,100504.53
2022-08-26T00:22:06.010Z,100504.16
2022-08-26T00:24:34.012Z,100473.63
2022-08-26T00:27:01.880Z,100512.88
2022-08-26T00:29:32.006Z,100507.19
2022-08-26T00:32:04.060Z,100515.06
2022-08-26T00:34:32.018Z,100515.06
2022-08-26T00:36:59.860Z,100509.34
2022-08-26T00:39:29.079Z,100515.88
2022-08-26T00:41:57.231Z,100517.75
2022-08-26T00:44:25.028Z,100504.47
2022-08-26T00:46:59.360Z,100516.97
2022-08-26T00:49:35.524Z,100520.28
2022-08-26T00:52:06.344Z,100522.59
2022-08-26T00:54:46.655Z,100532.34
2022-08-26T00:57:17.614Z,100505.94
2022-08-26T00:59:47.723Z,100522.25
2022-08-26T01:02:20.712Z,100530.78
2022-08-26T01:04:55.631Z,100535.78
2022-08-26T01:07:27.565Z,100521.78
2022-08-26T01:10:01.906Z,100534.34
2022-08-26T01:12:38.825Z,100531.28
2022-08-26T01:15:09.726Z,100531.28
2022-08-26T01:17:38.803Z,100514.81
2022-08-26T01:20:13.357Z,100536.31
2022-08-26T01:22:53.612Z,100536.31
2022-08-26T01:25:23.283Z,100530.31
2022-08-26T01:27:52.406Z,100502.00
2022-08-26T01:30:21.157Z,100511.94
2022-08-26T01:32:51.520Z,100532.63
2022-08-26T01:35:20.259Z,100522.72
2022-08-26T01:37:52.231Z,100541.56
2022-08-26T01:40:27.495Z,100545.06
2022-08-26T01:42:56.353Z,100546.59
2022-08-26T01:45:27.329Z,100545.38
2022-08-26T01:47:57.919Z,100549.94
2022-08-26T01:50:30.631Z,100550.97
2022-08-26T01:53:03.423Z,100553.91
2022-08-26T01:55:34.049Z,100554.31
2022-08-26T01:58:06.175Z,100553.28
2022-08-26T02:00:35.564Z,100559.72
2022-08-26T02:03:17.866Z,100553.56
2022-08-26T02:05:47.439Z,100560.63
2022-08-26T02:08:24.688Z,100560.63
2022-08-26T02:10:54.623Z,100568.94
2022-08-26T02:13:23.795Z,100571.84
2022-08-26T02:15:53.158Z,100566.06
2022-08-26T02:18:22.408Z,100571.88
2022-08-26T02:20:51.727Z,100569.84
2022-08-26T02:23:21.053Z,100574.22
2022-08-26T02:25:56.982Z,100577.56
2022-08-26T02:28:28.352Z,100576.09
2022-08-26T02:30:56.510Z,100573.84
2022-08-26T02:33:24.580Z,100568.28
2022-08-26T02:35:52.856Z,100562.09
2022-08-26T02:38:23.359Z,100575.78
2022-08-26T02:40:51.504Z,100560.00
2022-08-26T02:43:19.425Z,100563.31
2022-08-26T02:46:01.688Z,100567.88
2022-08-26T02:48:29.903Z,100576.19
2022-08-26T02:50:59.769Z,100571.41
2022-08-26T02:53:31.750Z,100574.53
2022-08-26T02:56:00.038Z,100574.53
2022-08-26T02:58:27.843Z,100584.53
2022-08-26T03:00:55.976Z,100549.34
2022-08-26T03:03:23.897Z,100577.31
2022-08-26T03:05:51.825Z,100580.00
2022-08-26T03:08:19.979Z,100571.47
2022-08-26T03:10:49.432Z,100573.34
2022-08-26T03:13:18.115Z,100577.50
2022-08-26T03:15:46.014Z,100573.41
2022-08-26T03:18:16.172Z,100573.00
2022-08-26T03:20:44.103Z,100571.13
2022-08-26T03:23:12.557Z,100576.72
2022-08-26T03:25:40.537Z,100567.41
2022-08-26T03:28:09.867Z,100578.38
2022-08-26T03:30:39.939Z,100572.59
2022-08-26T03:33:14.691Z,100567.06
2022-08-26T03:35:45.100Z,100568.03
2022-08-26T03:38:12.973Z,100574.25
2022-08-26T03:40:42.487Z,100576.13
2022-08-26T03:43:13.709Z,100567.84
2022-08-26T03:45:41.880Z,100582.53
2022-08-26T03:48:11.314Z,100578.19
2022-08-26T03:50:40.067Z,100571.75
2022-08-26T03:53:13.221Z,100577.16
2022-08-26T03:55:43.109Z,100569.69
2022-08-26T03:58:12.473Z,100573.00
2022-08-26T04:00:40.542Z,100579.84
2022-08-26T04:03:12.155Z,100575.47
2022-08-26T04:05:43.475Z,100573.63
2022-08-26T04:08:12.690Z,100581.50
2022-08-26T04:10:40.640Z,100571.06
2022-08-26T04:13:08.522Z,100577.91
2022-08-26T04:15:39.256Z,100580.81
2022-08-26T04:18:07.219Z,100575.44
2022-08-26T04:20:35.058Z,100556.44
2022-08-26T04:23:02.842Z,100576.88
2022-08-26T04:25:33.575Z,100580.63
2022-08-26T04:28:03.812Z,100587.88
2022-08-26T04:30:32.261Z,100582.91
2022-08-26T04:33:04.545Z,100584.13
2022-08-26T04:35:43.155Z,100592.22
2022-08-26T04:38:11.434Z,100586.22
2022-08-26T04:40:46.878Z,100581.25
2022-08-26T04:43:15.361Z,100592.84
2022-08-26T04:45:43.950Z,100592.03
2022-08-26T04:48:13.336Z,100602.59
2022-08-26T04:50:44.665Z,100593.09
2022-08-26T04:53:17.132Z,100605.75
2022-08-26T04:55:45.289Z,100593.69
2022-08-26T04:58:17.120Z,100604.47
2022-08-26T05:00:45.451Z,100595.78
2022-08-26T05:03:14.574Z,100603.44
2022-08-26T05:05:43.326Z,100605.94
2022-08-26T05:08:12.349Z,100605.28
2022-08-26T05:10:41.968Z,100603.63
2022-08-26T05:13:15.133Z,100599.91
2022-08-26T05:15:44.052Z,100598.22
2022-08-26T05:18:13.763Z,100603.00
2022-08-26T05:20:46.450Z,100606.31
2022-08-26T05:23:15.327Z,100595.75
2022-08-26T05:25:46.659Z,100601.38
2022-08-26T05:28:16.279Z,100608.41
2022-08-26T05:30:44.798Z,100604.66
2022-08-26T05:33:13.968Z,100608.63
2022-08-26T05:35:44.379Z,100592.63
2022-08-26T05:38:15.823Z,100606.31
2022-08-26T05:40:46.535Z,100595.78
2022-08-26T05:43:15.193Z,100607.59
2022-08-26T05:45:45.832Z,100612.53
2022-08-26T05:48:13.984Z,100611.09
2022-08-26T05:50:45.795Z,100609.88
2022-08-26T05:53:17.431Z,100615.47
2022-08-26T05:55:49.170Z,100608.19
2022-08-26T05:58:20.031Z,100608.19
2022-08-26T06:00:57.472Z,100624.97
2022-08-26T06:03:25.448Z,100623.09
2022-08-26T06:05:54.645Z,100627.66
2022-08-26T06:08:22.752Z,100622.47
2022-08-26T06:10:53.703Z,100628.06
2022-08-26T06:13:23.763Z,100638.41
2022-08-26T06:15:52.651Z,100625.56
2022-08-26T06:18:22.478Z,100628.06
2022-08-26T06:20:57.654Z,100630.91
2022-08-26T06:23:46.721Z,100635.50
2022-08-26T06:26:15.911Z,100632.81
2022-08-26T06:28:45.542Z,100635.88
2022-08-26T06:31:14.369Z,100608.97
2022-08-26T06:33:42.447Z,100630.09
2022-08-26T06:36:10.315Z,100632.81
2022-08-26T06:38:39.628Z,100633.59
2022-08-26T06:41:10.647Z,100627.25
2022-08-26T06:43:39.445Z,100638.78
2022-08-26T06:46:08.867Z,100636.31
2022-08-26T06:48:37.396Z,100644.41
2022-08-26T06:51:08.977Z,100646.66
2022-08-26T06:53:37.841Z,100641.88
2022-08-26T06:56:12.139Z,100640.84
2022-08-26T06:58:41.044Z,100641.03
2022-08-26T07:01:17.137Z,100628.22
2022-08-26T07:03:46.764Z,100648.50
2022-08-26T07:06:15.019Z,100651.81
2022-08-26T07:08:44.372Z,100643.72
2022-08-26T07:11:14.775Z,100651.22
2022-08-26T07:13:42.852Z,100649.56
2022-08-26T07:16:13.552Z,100655.16
2022-08-26T07:18:44.786Z,100662.63
2022-08-26T07:21:15.429Z,100653.28
2022-08-26T07:23:43.431Z,100662.44
2022-08-26T07:26:16.176Z,100649.56
2022-08-26T07:28:44.459Z,100667.41
2022-08-26T07:31:14.640Z,100666.97
2022-08-26T07:33:43.469Z,100670.28
2022-08-26T07:36:13.629Z,100665.72
2022-08-26T07:38:41.789Z,100677.75
2022-08-26T07:41:10.215Z,100677.97
2022-08-26T07:43:39.400Z,100676.94
2022-08-26T07:46:11.305Z,100675.69
2022-08-26T07:48:46.133Z,100677.16
2022-08-26T07:51:14.915Z,100672.78
2022-08-26T07:53:42.888Z,100684.81
2022-08-26T07:56:11.231Z,100681.94
2022-08-26T07:58:40.735Z,100685.84
2022-08-26T08:01:10.543Z,100678.59
2022-08-26T08:03:38.748Z,100681.06
2022-08-26T08:06:07.080Z,100685.66
2022-08-26T08:08:37.800Z,100681.50
2022-08-26T08:11:05.930Z,100687.09
2022-08-26T08:13:33.819Z,100687.75
2022-08-26T08:16:03.235Z,100690.22
2022-08-26T08:18:31.076Z,100681.09
2022-08-26T08:21:21.199Z,100685.25
2022-08-26T08:23:49.740Z,100673.47
2022-08-26T08:26:17.499Z,100691.88
2022-08-26T08:28:48.033Z,100686.47
2022-08-26T08:31:45.151Z,100692.44
2022-08-26T08:34:10.657Z,100696.66
2022-08-26T08:36:38.506Z,100694.78
2022-08-26T08:39:06.598Z,100701.84
2022-08-26T08:41:58.011Z,100700.19
2022-08-26T08:47:06.875Z,100701.44
2022-08-26T08:49:35.719Z,100675.97
2022-08-26T08:52:07.960Z,100696.72
2022-08-26T08:54:35.827Z,100700.81
2022-08-26T08:57:11.434Z,100708.31
2022-08-26T08:59:47.563Z,100704.81
2022-08-26T09:02:23.915Z,100680.56
2022-08-26T09:05:02.323Z,100706.06
2022-08-26T09:07:36.752Z,100683.66
2022-08-26T09:10:18.212Z,100706.69
2022-08-26T09:12:48.604Z,100699.81
2022-08-26T09:15:21.446Z,100707.66
2022-08-26T09:18:01.998Z,100709.94
2022-08-26T09:20:41.602Z,100700.63
2022-08-26T09:23:14.309Z,100704.13
2022-08-26T09:25:48.009Z,100709.94
2022-08-26T09:28:19.207Z,100712.38
2022-08-26T09:30:48.706Z,100716.16
2022-08-26T09:33:19.447Z,100712.56
2022-08-26T09:35:48.832Z,100714.63
2022-08-26T09:38:26.731Z,100718.78
2022-08-26T09:40:59.160Z,100714.59
2022-08-26T09:43:28.503Z,100714.16
2022-08-26T09:46:15.178Z,100701.34
2022-08-26T09:48:44.408Z,100713.34
2022-08-26T09:51:29.139Z,100715.19
2022-08-26T09:53:59.416Z,100707.09
2022-08-26T09:56:30.048Z,100717.47
2022-08-26T09:58:59.235Z,100722.44
2022-08-26T10:01:32.146Z,100701.28
2022-08-26T10:04:11.142Z,100707.28
2022-08-26T10:06:42.478Z,100709.56
2022-08-26T10:09:14.609Z,100719.97
2022-08-26T10:11:47.645Z,100696.38
2022-08-26T10:14:22.073Z,100703.75
2022-08-26T10:16:55.108Z,100700.44
2022-08-26T10:19:55.916Z,100710.41
2022-08-26T10:22:25.727Z,100696.28
2022-08-26T10:25:00.260Z,100706.63
2022-08-26T10:27:40.499Z,100714.53
2022-08-26T10:30:22.825Z,100709.31
2022-08-26T10:32:54.444Z,100707.03
2022-08-26T10:35:24.373Z,100707.03
2022-08-26T10:37:56.397Z,100707.72
2022-08-26T10:40:28.862Z,100713.72
2022-08-26T10:43:07.218Z,100708.28
2022-08-26T10:45:40.255Z,100693.53
2022-08-26T10:48:13.646Z,100699.75
2022-08-26T10:50:47.559Z,100698.28
2022-08-26T10:53:19.026Z,100682.91
2022-08-26T10:56:02.316Z,100680.97
2022-08-26T10:58:55.955Z,100695.22
2022-08-26T11:01:43.593Z,100693.13
2022-08-26T11:04:24.231Z,100694.97
2022-08-26T11:07:31.670Z,100696.75
2022-08-26T11:10:02.160Z,100692.59
2022-08-26T11:12:53.342Z,100697.16
2022-08-26T11:16:08.484Z,100689.66
2022-08-26T11:18:46.411Z,100691.75
2022-08-26T11:21:50.846Z,100682.38
2022-08-26T11:25:01.354Z,100684.22
2022-08-26T11:28:08.258Z,100688.00
2022-08-26T11:30:47.688Z,100682.59
2022-08-26T11:33:48.715Z,100660.69
2022-08-26T11:36:38.490Z,100675.75
2022-08-26T11:39:18.875Z,100682.38
2022-08-26T11:41:52.630Z,100685.69
2022-08-26T11:44:23.302Z,100685.53
2022-08-26T11:47:01.128Z,100676.69
2022-08-26T11:49:31.472Z,100685.59
2022-08-26T11:52:18.560Z,100671.53
2022-08-26T11:55:02.424Z,100682.69
2022-08-26T11:57:34.904Z,100679.78
2022-08-26T12:00:07.263Z,100679.28
2022-08-26T12:02:36.390Z,100679.25
2022-08-26T12:05:04.707Z,100684.56
2022-08-26T12:07:33.321Z,100683.69
2022-08-26T12:10:04.883Z,100652.00
2022-08-26T12:12:38.560Z,100675.66
2022-08-26T12:15:10.619Z,100674.56
2022-08-26T12:17:39.566Z,100675.88
2022-08-26T12:20:48.566Z,100679.13
2022-08-26T12:23:38.267Z,100677.09
2022-08-26T12:26:10.411Z,100677.41
2022-08-26T12:28:48.975Z,100672.88
2022-08-26T12:31:23.942Z,100685.34
2022-08-26T12:33:53.944Z,100682.03
2022-08-26T12:36:27.419Z,100682.94
2022-08-26T12:39:07.977Z,100660.22
2022-08-26T12:41:46.495Z,100682.50
2022-08-26T12:44:39.810Z,100677.31
2022-08-26T12:47:13.845Z,100672.75
2022-08-26T12:49:48.279Z,100671.91
2022-08-26T12:52:33.437Z,100681.47
2022-08-26T12:55:05.066Z,100682.25
2022-08-26T12:57:36.257Z,100657.84
2022-08-26T13:00:34.585Z,100679.63
2022-08-26T13:03:05.748Z,100675.94
2022-08-26T13:05:37.871Z,100662.06
2022-08-26T13:08:14.447Z,100666.13
2022-08-26T13:10:50.456Z,100671.69
2022-08-26T13:13:18.234Z,100672.66
2022-08-26T13:15:49.009Z,100668.91
2022-08-26T13:18:18.922Z,100670.34
2022-08-26T13:20:47.050Z,100667.63
2022-08-26T13:23:17.474Z,100662.66
2022-08-26T13:25:48.144Z,100665.59
2022-08-26T13:28:17.418Z,100667.03
2022-08-26T13:30:54.062Z,100663.59
2022-08-26T13:33:22.885Z,100656.97
2022-08-26T13:35:50.800Z,100663.03
2022-08-26T13:38:25.157Z,100659.38
2022-08-26T13:41:02.637Z,100654.53
2022-08-26T13:43:31.239Z,100663.13
2022-08-26T13:46:03.023Z,100655.25
2022-08-26T13:48:31.391Z,100658.38
2022-08-26T13:51:01.480Z,100657.34
2022-08-26T13:53:31.451Z,100643.97
2022-08-26T13:56:00.078Z,100653.88
2022-08-26T13:58:28.738Z,100653.28
2022-08-26T14:00:57.882Z,100634.28
2022-08-26T14:03:27.149Z,100658.69
2022-08-26T14:05:55.185Z,100653.53
2022-08-26T14:08:23.276Z,100655.19
2022-08-26T14:10:51.164Z,100664.00
2022-08-26T14:13:19.768Z,100639.19
2022-08-26T14:15:47.912Z,100663.38
2022-08-26T14:18:18.751Z,100660.28
2022-08-26T14:20:51.104Z,100660.72
2022-08-26T14:23:19.087Z,100651.13
2022-08-26T14:25:46.928Z,100650.34
2022-08-26T14:28:14.808Z,100649.31
2022-08-26T14:30:44.326Z,100659.88
2022-08-26T14:33:14.200Z,100650.63
2022-08-26T14:35:48.059Z,100645.84
2022-08-26T14:38:18.607Z,100647.06
2022-08-26T14:40:46.647Z,100643.75
2022-08-26T14:43:16.133Z,100649.16
2022-08-26T14:45:45.606Z,100654.56
2022-08-26T14:48:14.061Z,100651.25
2022-08-26T14:50:41.893Z,100653.72
2022-08-26T14:53:27.427Z,100650.84
2022-08-26T14:55:56.707Z,100637.34
2022-08-26T14:58:24.483Z,100646.50
2022-08-26T15:00:56.772Z,100655.00
2022-08-26T15:03:25.108Z,100656.22
2022-08-26T15:05:53.459Z,100658.19
2022-08-26T15:08:21.691Z,100651.78
2022-08-26T15:10:49.641Z,100638.19
2022-08-26T15:13:19.220Z,100627.50
2022-08-26T15:15:47.230Z,100634.97
2022-08-26T15:18:15.143Z,100629.28
2022-08-26T15:20:42.952Z,100636.84
2022-08-26T15:23:11.292Z,100638.13
2022-08-26T15:25:39.675Z,100646.38
2022-08-26T15:28:07.548Z,100613.72
2022-08-26T15:30:37.484Z,100631.81
2022-08-26T15:33:05.651Z,100639.56
2022-08-26T15:35:43.496Z,100631.44
2022-08-26T15:38:12.533Z,100610.25
2022-08-26T15:40:40.590Z,100631.97
2022-08-26T15:43:25.703Z,100625.81
2022-08-26T15:45:57.763Z,100633.97
2022-08-26T15:48:26.199Z,100628.84
2022-08-26T15:50:56.352Z,100625.31
2022-08-26T15:53:25.067Z,100624.69
2022-08-26T15:55:56.343Z,100624.78
2022-08-26T15:58:27.000Z,100629.41
2022-08-26T16:00:57.174Z,100611.22
2022-08-26T16:03:25.055Z,100628.19
2022-08-26T16:05:53.412Z,100610.78
2022-08-26T16:08:22.428Z,100620.03
2022-08-26T16:10:51.298Z,100616.94
2022-08-26T16:13:20.982Z,100615.28
2022-08-26T16:15:49.391Z,100617.56
2022-08-26T16:18:20.255Z,100623.41
2022-08-26T16:21:12.558Z,100621.13
2022-08-26T16:23:45.098Z,100613.03
2022-08-26T16:26:15.481Z,100620.31
2022-08-26T16:28:43.765Z,100626.53
2022-08-26T16:31:12.131Z,100604.63
2022-08-26T16:33:41.596Z,100631.09
2022-08-26T16:36:10.248Z,100624.06
2022-08-26T16:38:39.633Z,100631.50
2022-08-26T16:41:08.142Z,100638.38
2022-08-26T16:43:36.750Z,100637.19
2022-08-26T16:46:06.933Z,100639.28
2022-08-26T16:48:34.884Z,100650.09
2022-08-26T16:51:04.334Z,100652.84
2022-08-26T16:53:33.547Z,100646.47
2022-08-26T16:56:01.332Z,100666.72
2022-08-26T16:58:29.489Z,100663.63
2022-08-26T17:00:57.578Z,100660.56
2022-08-26T17:03:25.470Z,100649.19
2022-08-26T17:05:53.256Z,100659.56
2022-08-26T17:08:28.407Z,100664.13
2022-08-26T17:10:56.565Z,100670.19
2022-08-26T17:13:35.229Z,100665.00
2022-08-26T17:16:05.149Z,100665.81
2022-08-26T17:18:33.840Z,100660.06
2022-08-26T17:21:03.115Z,100673.78
2022-08-26T17:23:32.812Z,100676.25
2022-08-26T17:26:00.656Z,100676.28
2022-08-26T17:28:28.529Z,100678.78
2022-08-26T17:30:57.170Z,100674.25
2022-08-26T17:33:25.358Z,100677.94
2022-08-26T17:35:54.116Z,100672.56
2022-08-26T17:38:22.839Z,100672.56
2022-08-26T17:40:52.539Z,100678.59
2022-08-26T17:43:20.635Z,100680.03
2022-08-26T17:45:48.584Z,100687.75
2022-08-26T17:48:17.188Z,100683.63
2022-08-26T17:50:45.551Z,100689.63
2022-08-26T17:53:18.846Z,100689.03
2022-08-26T17:55:47.452Z,100682.59
2022-08-26T17:58:18.555Z,100688.84
2022-08-26T18:00:48.148Z,100682.81
2022-08-26T18:03:16.618Z,100691.97
2022-08-26T18:05:48.616Z,100691.78
2022-08-26T18:08:16.568Z,100684.34
2022-08-26T18:10:45.239Z,100692.00
2022-08-26T18:13:14.704Z,100698.22
2022-08-26T18:15:45.465Z,100696.78
2022-08-26T18:18:14.259Z,100693.91
2022-08-26T18:20:45.443Z,100695.16
2022-08-26T18:23:14.059Z,100691.47
2022-08-26T18:25:42.311Z,100690.22
2022-08-26T18:28:10.770Z,100690.22
2022-08-26T18:30:39.010Z,100692.69
2022-08-26T18:33:08.219Z,100698.88
2022-08-26T18:35:39.839Z,100699.72
2022-08-26T18:38:11.713Z,100702.88
2022-08-26T18:40:41.206Z,100698.31
2022-08-26T18:43:09.076Z,100695.59
2022-08-26T18:45:36.960Z,100700.16
2022-08-26T18:48:05.708Z,100697.91
2022-08-26T18:50:38.360Z,100700.81
2022-08-26T18:53:06.597Z,100703.50
2022-08-26T18:55:34.564Z,100701.22
2022-08-26T18:58:02.471Z,100707.88
2022-08-26T19:00:31.513Z,100710.56
2022-08-26T19:02:59.395Z,100706.66
2022-08-26T19:05:28.458Z,100713.47
2022-08-26T19:07:57.746Z,100706.00
2022-08-26T19:10:25.622Z,100711.41
2022-08-26T19:12:55.365Z,100711.41
2022-08-26T19:15:26.558Z,100712.66
2022-08-26T19:17:54.477Z,100710.63
2022-08-26T19:20:22.738Z,100722.03
2022-08-26T19:22:50.572Z,100715.19
2022-08-26T19:25:20.183Z,100718.09
2022-08-26T19:27:48.523Z,100723.88
2022-08-26T19:30:16.276Z,100714.34
2022-08-26T19:32:44.206Z,100721.81
2022-08-26T19:35:11.987Z,100714.78
2022-08-26T19:37:40.000Z,100709.78
2022-08-26T19:40:08.769Z,100719.13
2022-08-26T19:42:37.926Z,100718.56
2022-08-26T19:45:20.199Z,100713.78
2022-08-26T19:47:53.466Z,100706.53
2022-08-26T19:50:21.540Z,100717.72
2022-08-26T19:52:49.741Z,100708.56
2022-08-26T19:55:19.058Z,100713.94
2022-08-26T19:57:48.247Z,100712.31
2022-08-26T20:00:19.266Z,100712.31
2022-08-26T20:02:47.236Z,100712.53
2022-08-26T20:05:16.866Z,100716.47
2022-08-26T20:07:44.640Z,100713.78
2022-08-26T20:10:13.992Z,100719.19
2022-08-26T20:12:42.594Z,100708.16
2022-08-26T20:15:13.709Z,100719.34
2022-08-26T20:17:42.288Z,100715.22
2022-08-26T20:20:33.768Z,100726.00
2022-08-26T20:23:03.507Z,100726.81
2022-08-26T20:25:33.531Z,100720.84
2022-08-26T20:28:01.861Z,100727.25
2022-08-26T20:30:31.159Z,100725.19
2022-08-26T20:32:58.923Z,100730.59
2022-08-26T20:35:27.396Z,100732.22
2022-08-26T20:37:55.218Z,100741.38
2022-08-26T20:40:23.126Z,100735.16
2022-08-26T20:42:51.296Z,100730.38
2022-08-26T20:45:19.222Z,100733.91
2022-08-26T20:47:48.377Z,100737.22
2022-08-26T20:50:16.172Z,100731.84
2022-08-26T20:52:43.919Z,100737.44
2022-08-26T20:55:11.906Z,100745.50
2022-08-26T20:57:43.160Z,100751.56
2022-08-26T21:00:13.281Z,100744.72
2022-08-26T21:02:41.979Z,100741.19
2022-08-26T21:05:11.317Z,100742.03
2022-08-26T21:07:39.377Z,100747.19
2022-08-26T21:10:08.228Z,100743.88
2022-08-26T21:12:36.711Z,100736.41
2022-08-26T21:15:05.756Z,100734.13
2022-08-26T21:17:34.321Z,100746.16
2022-08-26T21:20:02.143Z,100743.47
2022-08-26T21:22:31.574Z,100745.31
2022-08-26T21:24:59.405Z,100737.66
2022-08-26T21:27:27.173Z,100739.31
2022-08-26T21:29:56.175Z,100744.72
2022-08-26T21:32:24.029Z,100733.13
2022-08-26T21:34:55.493Z,100743.91
2022-08-26T21:37:23.908Z,100743.91
2022-08-26T21:39:56.125Z,100753.66
2022-08-26T21:42:25.185Z,100746.38
2022-08-26T21:44:53.284Z,100750.53
2022-08-26T21:47:21.138Z,100752.19
2022-08-26T21:49:49.020Z,100756.31
2022-08-26T21:52:16.880Z,100756.75
2022-08-26T21:54:49.337Z,100755.09
2022-08-26T21:57:19.299Z,100757.78
2022-08-26T21:59:47.285Z,100759.22
2022-08-26T22:02:15.652Z,100765.44
2022-08-26T22:04:48.134Z,100755.28
2022-08-26T22:07:19.033Z,100763.16
2022-08-26T22:09:47.215Z,100764.59
2022-08-26T22:12:18.003Z,100754.66
2022-08-26T22:14:47.841Z,100760.47
2022-08-26T22:17:16.977Z,100758.16
2022-08-26T22:19:46.391Z,100763.31
2022-08-26T22:22:15.290Z,100764.38
2022-08-26T22:24:43.935Z,100758.34
2022-08-26T22:27:12.102Z,100758.56
2022-08-26T22:29:40.068Z,100757.94
2022-08-26T22:32:09.336Z,100768.69
2022-08-26T22:34:37.175Z,100772.03
2022-08-26T22:37:05.274Z,100768.28
2022-08-26T22:39:33.615Z,100774.91
2022-08-26T22:42:01.628Z,100765.78
2022-08-26T22:44:29.424Z,100772.84
2022-08-26T22:46:57.243Z,100778.81
2022-08-26T22:49:26.443Z,100771.13
2022-08-26T22:51:54.436Z,100768.44
2022-08-26T22:54:22.224Z,100778.97
2022-08-26T22:56:50.078Z,100767.81
2022-08-26T22:59:18.028Z,100776.94
2022-08-26T23:01:47.219Z,100763.66
2022-08-26T23:04:15.059Z,100765.31
2022-08-26T23:06:47.519Z,100769.03
2022-08-26T23:09:17.841Z,100777.13
2022-08-26T23:11:47.329Z,100773.41
2022-08-26T23:14:15.767Z,100758.28
2022-08-26T23:16:43.980Z,100758.28
2022-08-26T23:19:13.601Z,100770.31
2022-08-26T23:21:41.984Z,100772.78
2022-08-26T23:24:12.017Z,100767.19
2022-08-26T23:26:40.950Z,100768.22
2022-08-26T23:29:10.702Z,100768.63
2022-08-26T23:31:39.187Z,100764.66
2022-08-26T23:34:25.445Z,100766.53
2022-08-26T23:36:53.857Z,100751.16
2022-08-26T23:39:23.046Z,100777.28
2022-08-26T23:41:50.811Z,100768.19
2022-08-26T23:44:19.592Z,100769.41
2022-08-26T23:46:47.868Z,100753.81
2022-08-26T23:49:15.642Z,100764.66
2022-08-26T23:52:00.799Z,100774.41
2022-08-26T23:54:31.511Z,100767.16
2022-08-26T23:56:59.386Z,100764.63
2022-08-26T23:59:27.239Z,100764.63
